sensor_id;sensor_type;location;lat;lon;timestamp;P1;durP1;ratioP1;P2;durP2;ratioP2
54428;SDS011;40337;52.978;6.310;2023-03-14T00:00:30;19.55;;;5.30;;
54428;SDS011;40337;52.978;6.310;2023-03-14T00:02:56;23.85;;;6.32;;
54428;SDS011;40337;52.978;6.310;2023-03-14T00:05:21;19.88;;;5.78;;
54428;SDS011;40337;52.978;6.310;2023-03-14T00:07:47;18.90;;;5.15;;
54428;SDS011;40337;52.978;6.310;2023-03-14T00:10:13;16.70;;;5.28;;
54428;SDS011;40337;52.978;6.310;2023-03-14T00:12:39;22.05;;;5.15;;
54428;SDS011;40337;52.978;6.310;2023-03-14T00:15:06;17.77;;;5.30;;
54428;SDS011;40337;52.978;6.310;2023-03-14T00:17:33;18.80;;;5.22;;
54428;SDS011;40337;52.978;6.310;2023-03-14T00:20:00;19.58;;;5.10;;
54428;SDS011;40337;52.978;6.310;2023-03-14T00:22:39;16.98;;;5.18;;
54428;SDS011;40337;52.978;6.310;2023-03-14T00:25:05;17.05;;;4.72;;
54428;SDS011;40337;52.978;6.310;2023-03-14T00:27:34;17.00;;;5.25;;
54428;SDS011;40337;52.978;6.310;2023-03-14T00:29:59;19.77;;;5.38;;
54428;SDS011;40337;52.978;6.310;2023-03-14T00:32:25;20.60;;;5.20;;
54428;SDS011;40337;52.978;6.310;2023-03-14T00:34:51;21.27;;;5.28;;
54428;SDS011;40337;52.978;6.310;2023-03-14T00:37:17;17.48;;;5.10;;
54428;SDS011;40337;52.978;6.310;2023-03-14T00:39:42;16.58;;;5.13;;
54428;SDS011;40337;52.978;6.310;2023-03-14T00:42:08;20.50;;;5.32;;
54428;SDS011;40337;52.978;6.310;2023-03-14T00:44:33;20.23;;;5.63;;
54428;SDS011;40337;52.978;6.310;2023-03-14T00:46:59;22.10;;;5.30;;
54428;SDS011;40337;52.978;6.310;2023-03-14T00:49:25;17.10;;;5.18;;
54428;SDS011;40337;52.978;6.310;2023-03-14T00:51:50;18.30;;;5.45;;
54428;SDS011;40337;52.978;6.310;2023-03-14T00:54:16;19.40;;;4.72;;
54428;SDS011;40337;52.978;6.310;2023-03-14T00:56:43;20.25;;;5.57;;
54428;SDS011;40337;52.978;6.310;2023-03-14T00:59:09;15.90;;;4.70;;
54428;SDS011;40337;52.978;6.310;2023-03-14T01:01:35;19.92;;;4.93;;
54428;SDS011;40337;52.978;6.310;2023-03-14T01:04:00;22.92;;;5.68;;
54428;SDS011;40337;52.978;6.310;2023-03-14T01:06:27;17.90;;;5.32;;
54428;SDS011;40337;52.978;6.310;2023-03-14T01:08:54;12.27;;;4.20;;
54428;SDS011;40337;52.978;6.310;2023-03-14T01:11:22;17.95;;;4.78;;
54428;SDS011;40337;52.978;6.310;2023-03-14T01:13:49;15.10;;;4.55;;
54428;SDS011;40337;52.978;6.310;2023-03-14T01:16:15;15.00;;;4.45;;
54428;SDS011;40337;52.978;6.310;2023-03-14T01:18:42;17.83;;;4.70;;
54428;SDS011;40337;52.978;6.310;2023-03-14T01:21:10;15.05;;;4.80;;
54428;SDS011;40337;52.978;6.310;2023-03-14T01:23:37;15.98;;;4.55;;
54428;SDS011;40337;52.978;6.310;2023-03-14T01:26:03;14.75;;;4.35;;
54428;SDS011;40337;52.978;6.310;2023-03-14T01:28:29;14.27;;;4.50;;
54428;SDS011;40337;52.978;6.310;2023-03-14T01:30:54;14.88;;;3.92;;
54428;SDS011;40337;52.978;6.310;2023-03-14T01:33:20;15.55;;;4.20;;
54428;SDS011;40337;52.978;6.310;2023-03-14T01:35:45;13.52;;;3.80;;
54428;SDS011;40337;52.978;6.310;2023-03-14T01:38:14;12.55;;;4.05;;
54428;SDS011;40337;52.978;6.310;2023-03-14T01:40:43;11.98;;;4.15;;
54428;SDS011;40337;52.978;6.310;2023-03-14T01:43:14;14.55;;;4.20;;
54428;SDS011;40337;52.978;6.310;2023-03-14T01:51:39;12.88;;;3.75;;
54428;SDS011;40337;52.978;6.310;2023-03-14T01:54:10;12.70;;;3.50;;
54428;SDS011;40337;52.978;6.310;2023-03-14T01:56:44;17.48;;;3.60;;
54428;SDS011;40337;52.978;6.310;2023-03-14T01:59:14;13.15;;;3.28;;
54428;SDS011;40337;52.978;6.310;2023-03-14T02:01:41;10.30;;;3.42;;
54428;SDS011;40337;52.978;6.310;2023-03-14T02:04:09;13.60;;;3.45;;
54428;SDS011;40337;52.978;6.310;2023-03-14T02:06:39;10.35;;;2.88;;
54428;SDS011;40337;52.978;6.310;2023-03-14T02:09:19;11.57;;;3.22;;
54428;SDS011;40337;52.978;6.310;2023-03-14T02:11:45;13.90;;;3.55;;
54428;SDS011;40337;52.978;6.310;2023-03-14T02:14:14;12.45;;;3.47;;
54428;SDS011;40337;52.978;6.310;2023-03-14T02:16:50;11.63;;;3.20;;
54428;SDS011;40337;52.978;6.310;2023-03-14T02:19:17;11.40;;;4.05;;
54428;SDS011;40337;52.978;6.310;2023-03-14T02:24:30;9.45;;;3.28;;
54428;SDS011;40337;52.978;6.310;2023-03-14T02:27:10;10.68;;;3.58;;
54428;SDS011;40337;52.978;6.310;2023-03-14T02:29:44;11.30;;;3.10;;
54428;SDS011;40337;52.978;6.310;2023-03-14T02:32:14;8.80;;;3.13;;
54428;SDS011;40337;52.978;6.310;2023-03-14T02:34:42;11.43;;;3.17;;
54428;SDS011;40337;52.978;6.310;2023-03-14T02:37:10;10.43;;;3.20;;
54428;SDS011;40337;52.978;6.310;2023-03-14T02:39:41;8.95;;;2.80;;
54428;SDS011;40337;52.978;6.310;2023-03-14T02:42:09;10.90;;;2.92;;
54428;SDS011;40337;52.978;6.310;2023-03-14T02:44:35;10.10;;;2.95;;
54428;SDS011;40337;52.978;6.310;2023-03-14T02:47:12;10.52;;;2.78;;
54428;SDS011;40337;52.978;6.310;2023-03-14T02:49:37;8.65;;;2.88;;
54428;SDS011;40337;52.978;6.310;2023-03-14T02:52:03;10.00;;;2.92;;
54428;SDS011;40337;52.978;6.310;2023-03-14T02:54:29;9.02;;;3.03;;
54428;SDS011;40337;52.978;6.310;2023-03-14T02:56:54;8.68;;;2.92;;
54428;SDS011;40337;52.978;6.310;2023-03-14T02:59:20;9.80;;;3.03;;
54428;SDS011;40337;52.978;6.310;2023-03-14T03:01:45;9.88;;;3.60;;
54428;SDS011;40337;52.978;6.310;2023-03-14T03:04:11;9.70;;;3.28;;
54428;SDS011;40337;52.978;6.310;2023-03-14T03:06:36;10.25;;;3.20;;
54428;SDS011;40337;52.978;6.310;2023-03-14T03:09:02;11.43;;;3.88;;
54428;SDS011;40337;52.978;6.310;2023-03-14T03:11:28;12.45;;;4.50;;
54428;SDS011;40337;52.978;6.310;2023-03-14T03:13:53;12.38;;;4.15;;
54428;SDS011;40337;52.978;6.310;2023-03-14T03:16:19;11.55;;;4.15;;
54428;SDS011;40337;52.978;6.310;2023-03-14T03:18:44;14.95;;;4.90;;
54428;SDS011;40337;52.978;6.310;2023-03-14T03:21:10;13.48;;;5.10;;
54428;SDS011;40337;52.978;6.310;2023-03-14T03:23:35;15.45;;;5.45;;
54428;SDS011;40337;52.978;6.310;2023-03-14T03:26:01;13.80;;;5.65;;
54428;SDS011;40337;52.978;6.310;2023-03-14T03:28:27;14.50;;;5.70;;
54428;SDS011;40337;52.978;6.310;2023-03-14T03:30:53;12.63;;;5.15;;
54428;SDS011;40337;52.978;6.310;2023-03-14T03:33:19;16.08;;;5.50;;
54428;SDS011;40337;52.978;6.310;2023-03-14T03:35:45;14.32;;;5.80;;
54428;SDS011;40337;52.978;6.310;2023-03-14T03:38:12;20.00;;;6.65;;
54428;SDS011;40337;52.978;6.310;2023-03-14T03:40:38;17.77;;;6.45;;
54428;SDS011;40337;52.978;6.310;2023-03-14T03:43:04;17.08;;;6.75;;
54428;SDS011;40337;52.978;6.310;2023-03-14T03:45:30;19.40;;;6.47;;
54428;SDS011;40337;52.978;6.310;2023-03-14T03:47:55;18.25;;;7.30;;
54428;SDS011;40337;52.978;6.310;2023-03-14T03:50:21;16.10;;;6.72;;
54428;SDS011;40337;52.978;6.310;2023-03-14T03:52:47;18.33;;;7.50;;
54428;SDS011;40337;52.978;6.310;2023-03-14T03:55:12;22.30;;;7.55;;
54428;SDS011;40337;52.978;6.310;2023-03-14T03:57:38;17.60;;;7.60;;
54428;SDS011;40337;52.978;6.310;2023-03-14T04:00:03;19.02;;;8.38;;
54428;SDS011;40337;52.978;6.310;2023-03-14T04:02:30;16.48;;;8.15;;
54428;SDS011;40337;52.978;6.310;2023-03-14T04:04:56;18.77;;;7.88;;
54428;SDS011;40337;52.978;6.310;2023-03-14T04:07:22;14.38;;;8.30;;
54428;SDS011;40337;52.978;6.310;2023-03-14T04:09:47;15.77;;;8.15;;
54428;SDS011;40337;52.978;6.310;2023-03-14T04:12:13;16.25;;;8.77;;
54428;SDS011;40337;52.978;6.310;2023-03-14T04:14:38;18.08;;;8.93;;
54428;SDS011;40337;52.978;6.310;2023-03-14T04:17:06;17.17;;;9.32;;
54428;SDS011;40337;52.978;6.310;2023-03-14T04:19:32;16.25;;;9.23;;
54428;SDS011;40337;52.978;6.310;2023-03-14T04:21:57;18.15;;;9.60;;
54428;SDS011;40337;52.978;6.310;2023-03-14T04:24:23;19.00;;;9.52;;
54428;SDS011;40337;52.978;6.310;2023-03-14T04:26:48;16.33;;;9.15;;
54428;SDS011;40337;52.978;6.310;2023-03-14T04:29:14;20.88;;;9.40;;
54428;SDS011;40337;52.978;6.310;2023-03-14T04:31:40;19.20;;;8.73;;
54428;SDS011;40337;52.978;6.310;2023-03-14T04:34:05;15.07;;;8.60;;
54428;SDS011;40337;52.978;6.310;2023-03-14T04:36:31;20.10;;;8.43;;
54428;SDS011;40337;52.978;6.310;2023-03-14T04:38:56;15.07;;;8.07;;
54428;SDS011;40337;52.978;6.310;2023-03-14T04:41:22;16.92;;;6.70;;
54428;SDS011;40337;52.978;6.310;2023-03-14T04:43:47;13.30;;;6.88;;
54428;SDS011;40337;52.978;6.310;2023-03-14T04:46:13;16.55;;;6.70;;
54428;SDS011;40337;52.978;6.310;2023-03-14T04:48:38;14.98;;;6.88;;
54428;SDS011;40337;52.978;6.310;2023-03-14T04:51:04;12.77;;;6.68;;
54428;SDS011;40337;52.978;6.310;2023-03-14T04:53:30;13.65;;;6.60;;
54428;SDS011;40337;52.978;6.310;2023-03-14T04:55:56;13.05;;;6.65;;
54428;SDS011;40337;52.978;6.310;2023-03-14T04:58:22;16.88;;;7.13;;
54428;SDS011;40337;52.978;6.310;2023-03-14T05:00:48;13.70;;;6.68;;
54428;SDS011;40337;52.978;6.310;2023-03-14T05:03:14;15.77;;;6.57;;
54428;SDS011;40337;52.978;6.310;2023-03-14T05:05:41;16.85;;;6.55;;
54428;SDS011;40337;52.978;6.310;2023-03-14T05:08:06;14.77;;;6.22;;
54428;SDS011;40337;52.978;6.310;2023-03-14T05:10:32;12.10;;;6.03;;
54428;SDS011;40337;52.978;6.310;2023-03-14T05:12:58;14.15;;;6.47;;
54428;SDS011;40337;52.978;6.310;2023-03-14T05:15:24;16.38;;;6.75;;
54428;SDS011;40337;52.978;6.310;2023-03-14T05:17:49;16.17;;;6.78;;
54428;SDS011;40337;52.978;6.310;2023-03-14T05:20:15;14.43;;;6.82;;
54428;SDS011;40337;52.978;6.310;2023-03-14T05:22:41;15.35;;;6.68;;
54428;SDS011;40337;52.978;6.310;2023-03-14T05:25:07;16.40;;;6.78;;
54428;SDS011;40337;52.978;6.310;2023-03-14T05:27:34;19.85;;;7.78;;
54428;SDS011;40337;52.978;6.310;2023-03-14T05:30:00;15.50;;;6.90;;
54428;SDS011;40337;52.978;6.310;2023-03-14T05:32:26;15.60;;;7.38;;
54428;SDS011;40337;52.978;6.310;2023-03-14T05:34:51;14.07;;;7.50;;
54428;SDS011;40337;52.978;6.310;2023-03-14T05:37:17;15.57;;;7.47;;
54428;SDS011;40337;52.978;6.310;2023-03-14T05:39:43;16.15;;;7.93;;
54428;SDS011;40337;52.978;6.310;2023-03-14T05:42:08;16.33;;;8.05;;
54428;SDS011;40337;52.978;6.310;2023-03-14T05:44:34;13.32;;;7.45;;
54428;SDS011;40337;52.978;6.310;2023-03-14T05:46:59;14.20;;;7.60;;
54428;SDS011;40337;52.978;6.310;2023-03-14T05:49:25;14.30;;;7.57;;
54428;SDS011;40337;52.978;6.310;2023-03-14T05:51:50;16.25;;;7.95;;
54428;SDS011;40337;52.978;6.310;2023-03-14T05:54:16;16.70;;;7.82;;
54428;SDS011;40337;52.978;6.310;2023-03-14T05:56:42;15.55;;;8.40;;
54428;SDS011;40337;52.978;6.310;2023-03-14T05:59:07;15.15;;;7.47;;
54428;SDS011;40337;52.978;6.310;2023-03-14T06:01:34;17.52;;;7.70;;
54428;SDS011;40337;52.978;6.310;2023-03-14T06:03:59;18.20;;;8.57;;
54428;SDS011;40337;52.978;6.310;2023-03-14T06:06:25;12.23;;;7.22;;
54428;SDS011;40337;52.978;6.310;2023-03-14T06:08:50;12.55;;;6.60;;
54428;SDS011;40337;52.978;6.310;2023-03-14T06:11:16;13.50;;;6.95;;
54428;SDS011;40337;52.978;6.310;2023-03-14T06:13:41;11.75;;;6.55;;
54428;SDS011;40337;52.978;6.310;2023-03-14T06:16:07;14.32;;;7.22;;
54428;SDS011;40337;52.978;6.310;2023-03-14T06:18:33;12.30;;;6.68;;
54428;SDS011;40337;52.978;6.310;2023-03-14T06:20:59;11.23;;;6.97;;
54428;SDS011;40337;52.978;6.310;2023-03-14T06:23:24;14.55;;;7.78;;
54428;SDS011;40337;52.978;6.310;2023-03-14T06:25:50;13.18;;;7.90;;
54428;SDS011;40337;52.978;6.310;2023-03-14T06:28:16;14.63;;;7.90;;
54428;SDS011;40337;52.978;6.310;2023-03-14T06:30:41;17.38;;;8.00;;
54428;SDS011;40337;52.978;6.310;2023-03-14T06:33:07;13.95;;;7.65;;
54428;SDS011;40337;52.978;6.310;2023-03-14T06:35:32;12.18;;;6.68;;
54428;SDS011;40337;52.978;6.310;2023-03-14T06:37:58;11.60;;;6.70;;
54428;SDS011;40337;52.978;6.310;2023-03-14T06:40:24;14.25;;;7.47;;
54428;SDS011;40337;52.978;6.310;2023-03-14T06:42:49;12.50;;;6.47;;
54428;SDS011;40337;52.978;6.310;2023-03-14T06:45:15;12.38;;;6.88;;
54428;SDS011;40337;52.978;6.310;2023-03-14T06:47:40;7.63;;;4.68;;
54428;SDS011;40337;52.978;6.310;2023-03-14T06:50:06;8.15;;;4.47;;
54428;SDS011;40337;52.978;6.310;2023-03-14T06:52:33;6.70;;;3.40;;
54428;SDS011;40337;52.978;6.310;2023-03-14T06:54:58;4.47;;;2.17;;
54428;SDS011;40337;52.978;6.310;2023-03-14T06:57:24;5.30;;;2.20;;
54428;SDS011;40337;52.978;6.310;2023-03-14T06:59:49;5.90;;;1.27;;
54428;SDS011;40337;52.978;6.310;2023-03-14T07:02:15;7.38;;;2.05;;
54428;SDS011;40337;52.978;6.310;2023-03-14T07:04:41;6.68;;;1.60;;
54428;SDS011;40337;52.978;6.310;2023-03-14T07:07:06;5.80;;;1.70;;
54428;SDS011;40337;52.978;6.310;2023-03-14T07:09:32;10.38;;;2.90;;
54428;SDS011;40337;52.978;6.310;2023-03-14T07:11:59;7.82;;;2.22;;
54428;SDS011;40337;52.978;6.310;2023-03-14T07:14:25;8.27;;;2.03;;
54428;SDS011;40337;52.978;6.310;2023-03-14T07:16:50;7.90;;;1.90;;
54428;SDS011;40337;52.978;6.310;2023-03-14T07:19:16;9.23;;;1.92;;
54428;SDS011;40337;52.978;6.310;2023-03-14T07:21:42;9.20;;;1.90;;
54428;SDS011;40337;52.978;6.310;2023-03-14T07:24:07;7.40;;;1.88;;
54428;SDS011;40337;52.978;6.310;2023-03-14T07:26:33;6.72;;;1.58;;
54428;SDS011;40337;52.978;6.310;2023-03-14T07:28:58;9.00;;;2.05;;
54428;SDS011;40337;52.978;6.310;2023-03-14T07:31:24;5.18;;;1.35;;
54428;SDS011;40337;52.978;6.310;2023-03-14T07:33:50;6.10;;;1.15;;
54428;SDS011;40337;52.978;6.310;2023-03-14T07:36:16;4.75;;;1.20;;
54428;SDS011;40337;52.978;6.310;2023-03-14T07:38:41;3.40;;;0.93;;
54428;SDS011;40337;52.978;6.310;2023-03-14T07:41:07;4.70;;;1.05;;
54428;SDS011;40337;52.978;6.310;2023-03-14T07:43:33;5.63;;;1.27;;
54428;SDS011;40337;52.978;6.310;2023-03-14T07:45:59;5.05;;;1.10;;
54428;SDS011;40337;52.978;6.310;2023-03-14T07:48:25;5.15;;;0.90;;
54428;SDS011;40337;52.978;6.310;2023-03-14T07:50:52;2.80;;;1.13;;
54428;SDS011;40337;52.978;6.310;2023-03-14T07:53:19;4.55;;;1.05;;
54428;SDS011;40337;52.978;6.310;2023-03-14T07:55:45;4.05;;;1.00;;
54428;SDS011;40337;52.978;6.310;2023-03-14T07:58:11;3.65;;;0.90;;
54428;SDS011;40337;52.978;6.310;2023-03-14T08:00:37;4.60;;;1.20;;
54428;SDS011;40337;52.978;6.310;2023-03-14T08:03:03;4.38;;;0.90;;
54428;SDS011;40337;52.978;6.310;2023-03-14T08:05:29;5.30;;;1.20;;
54428;SDS011;40337;52.978;6.310;2023-03-14T08:07:54;4.40;;;1.00;;
54428;SDS011;40337;52.978;6.310;2023-03-14T08:10:22;6.68;;;1.35;;
54428;SDS011;40337;52.978;6.310;2023-03-14T08:12:55;5.43;;;1.23;;
54428;SDS011;40337;52.978;6.310;2023-03-14T08:15:22;5.15;;;1.20;;
54428;SDS011;40337;52.978;6.310;2023-03-14T08:17:49;4.80;;;1.20;;
54428;SDS011;40337;52.978;6.310;2023-03-14T08:20:22;5.25;;;1.33;;
54428;SDS011;40337;52.978;6.310;2023-03-14T08:22:49;7.53;;;1.75;;
54428;SDS011;40337;52.978;6.310;2023-03-14T08:25:15;8.20;;;1.35;;
54428;SDS011;40337;52.978;6.310;2023-03-14T08:27:41;7.95;;;1.48;;
54428;SDS011;40337;52.978;6.310;2023-03-14T08:30:09;6.57;;;1.60;;
54428;SDS011;40337;52.978;6.310;2023-03-14T08:32:36;6.65;;;1.63;;
54428;SDS011;40337;52.978;6.310;2023-03-14T08:35:02;5.60;;;1.27;;
54428;SDS011;40337;52.978;6.310;2023-03-14T08:37:28;6.50;;;1.45;;
54428;SDS011;40337;52.978;6.310;2023-03-14T08:39:56;8.32;;;1.98;;
54428;SDS011;40337;52.978;6.310;2023-03-14T08:42:21;8.85;;;1.70;;
54428;SDS011;40337;52.978;6.310;2023-03-14T08:44:47;6.18;;;1.75;;
54428;SDS011;40337;52.978;6.310;2023-03-14T08:47:12;7.85;;;1.60;;
54428;SDS011;40337;52.978;6.310;2023-03-14T08:49:38;8.80;;;1.92;;
54428;SDS011;40337;52.978;6.310;2023-03-14T08:52:04;6.97;;;1.60;;
54428;SDS011;40337;52.978;6.310;2023-03-14T08:54:30;6.50;;;1.70;;
54428;SDS011;40337;52.978;6.310;2023-03-14T08:56:56;8.57;;;1.65;;
54428;SDS011;40337;52.978;6.310;2023-03-14T08:59:22;6.90;;;1.80;;
54428;SDS011;40337;52.978;6.310;2023-03-14T09:01:49;9.27;;;2.55;;
54428;SDS011;40337;52.978;6.310;2023-03-14T09:04:15;7.18;;;2.05;;
54428;SDS011;40337;52.978;6.310;2023-03-14T09:06:41;10.18;;;2.20;;
54428;SDS011;40337;52.978;6.310;2023-03-14T09:09:06;10.80;;;2.03;;
54428;SDS011;40337;52.978;6.310;2023-03-14T09:11:32;8.77;;;2.15;;
54428;SDS011;40337;52.978;6.310;2023-03-14T09:13:58;14.20;;;2.92;;
54428;SDS011;40337;52.978;6.310;2023-03-14T09:16:23;8.48;;;2.20;;
54428;SDS011;40337;52.978;6.310;2023-03-14T09:18:49;13.18;;;3.15;;
54428;SDS011;40337;52.978;6.310;2023-03-14T09:21:15;11.75;;;3.00;;
54428;SDS011;40337;52.978;6.310;2023-03-14T09:23:41;12.32;;;3.00;;
54428;SDS011;40337;52.978;6.310;2023-03-14T09:26:06;12.82;;;3.15;;
54428;SDS011;40337;52.978;6.310;2023-03-14T09:28:32;15.50;;;2.90;;
54428;SDS011;40337;52.978;6.310;2023-03-14T09:30:58;13.02;;;3.22;;
54428;SDS011;40337;52.978;6.310;2023-03-14T09:33:30;12.80;;;3.30;;
54428;SDS011;40337;52.978;6.310;2023-03-14T09:35:57;15.18;;;3.60;;
54428;SDS011;40337;52.978;6.310;2023-03-14T09:38:24;14.13;;;3.70;;
54428;SDS011;40337;52.978;6.310;2023-03-14T09:40:50;17.67;;;5.20;;
54428;SDS011;40337;52.978;6.310;2023-03-14T09:43:16;14.45;;;3.95;;
54428;SDS011;40337;52.978;6.310;2023-03-14T09:45:42;20.17;;;4.25;;
54428;SDS011;40337;52.978;6.310;2023-03-14T09:48:20;13.73;;;3.90;;
54428;SDS011;40337;52.978;6.310;2023-03-14T09:50:50;19.13;;;4.65;;
54428;SDS011;40337;52.978;6.310;2023-03-14T09:53:19;17.02;;;3.97;;
54428;SDS011;40337;52.978;6.310;2023-03-14T09:55:49;16.15;;;3.80;;
54428;SDS011;40337;52.978;6.310;2023-03-14T09:58:21;16.77;;;4.32;;
54428;SDS011;40337;52.978;6.310;2023-03-14T10:00:48;13.40;;;3.85;;
54428;SDS011;40337;52.978;6.310;2023-03-14T10:03:26;21.27;;;4.65;;
54428;SDS011;40337;52.978;6.310;2023-03-14T10:05:51;18.63;;;4.78;;
54428;SDS011;40337;52.978;6.310;2023-03-14T10:08:18;16.38;;;4.30;;
54428;SDS011;40337;52.978;6.310;2023-03-14T10:10:44;17.15;;;4.60;;
54428;SDS011;40337;52.978;6.310;2023-03-14T10:15:47;14.93;;;4.57;;
54428;SDS011;40337;52.978;6.310;2023-03-14T10:18:33;15.07;;;4.07;;
54428;SDS011;40337;52.978;6.310;2023-03-14T10:23:41;15.65;;;4.38;;
54428;SDS011;40337;52.978;6.310;2023-03-14T10:26:08;14.90;;;4.18;;
54428;SDS011;40337;52.978;6.310;2023-03-14T10:28:46;20.20;;;4.10;;
54428;SDS011;40337;52.978;6.310;2023-03-14T10:31:16;13.15;;;3.53;;
54428;SDS011;40337;52.978;6.310;2023-03-14T10:33:42;16.55;;;4.35;;
54428;SDS011;40337;52.978;6.310;2023-03-14T10:36:25;14.10;;;3.42;;
54428;SDS011;40337;52.978;6.310;2023-03-14T10:38:57;13.77;;;3.53;;
54428;SDS011;40337;52.978;6.310;2023-03-14T10:41:46;12.90;;;3.70;;
54428;SDS011;40337;52.978;6.310;2023-03-14T10:44:13;16.92;;;3.83;;
54428;SDS011;40337;52.978;6.310;2023-03-14T10:46:41;13.35;;;3.17;;
54428;SDS011;40337;52.978;6.310;2023-03-14T10:49:07;11.68;;;3.63;;
54428;SDS011;40337;52.978;6.310;2023-03-14T10:51:42;15.52;;;4.00;;
54428;SDS011;40337;52.978;6.310;2023-03-14T10:54:12;12.32;;;3.35;;
54428;SDS011;40337;52.978;6.310;2023-03-14T10:56:45;12.85;;;3.47;;
54428;SDS011;40337;52.978;6.310;2023-03-14T10:59:20;13.82;;;3.80;;
54428;SDS011;40337;52.978;6.310;2023-03-14T11:07:43;10.73;;;2.92;;
54428;SDS011;40337;52.978;6.310;2023-03-14T11:19:08;13.10;;;3.50;;
54428;SDS011;40337;52.978;6.310;2023-03-14T11:21:47;9.45;;;3.05;;
54428;SDS011;40337;52.978;6.310;2023-03-14T11:24:47;9.85;;;3.13;;
54428;SDS011;40337;52.978;6.310;2023-03-14T11:27:16;9.65;;;3.05;;
54428;SDS011;40337;52.978;6.310;2023-03-14T11:30:02;9.63;;;2.50;;
54428;SDS011;40337;52.978;6.310;2023-03-14T11:35:02;9.30;;;3.42;;
54428;SDS011;40337;52.978;6.310;2023-03-14T11:37:33;8.30;;;3.20;;
54428;SDS011;40337;52.978;6.310;2023-03-14T11:40:05;9.38;;;2.40;;
54428;SDS011;40337;52.978;6.310;2023-03-14T11:42:38;9.77;;;2.33;;
54428;SDS011;40337;52.978;6.310;2023-03-14T11:45:13;7.13;;;2.05;;
54428;SDS011;40337;52.978;6.310;2023-03-14T11:47:50;7.00;;;1.80;;
54428;SDS011;40337;52.978;6.310;2023-03-14T11:50:23;5.72;;;1.70;;
54428;SDS011;40337;52.978;6.310;2023-03-14T11:52:56;8.02;;;1.90;;
54428;SDS011;40337;52.978;6.310;2023-03-14T11:55:35;5.03;;;2.22;;
54428;SDS011;40337;52.978;6.310;2023-03-14T11:58:20;8.55;;;2.33;;
54428;SDS011;40337;52.978;6.310;2023-03-14T12:01:02;4.90;;;1.88;;
54428;SDS011;40337;52.978;6.310;2023-03-14T12:03:40;6.82;;;2.00;;
54428;SDS011;40337;52.978;6.310;2023-03-14T12:06:19;6.93;;;2.40;;
54428;SDS011;40337;52.978;6.310;2023-03-14T12:09:05;7.25;;;2.35;;
54428;SDS011;40337;52.978;6.310;2023-03-14T12:14:26;8.13;;;2.67;;
54428;SDS011;40337;52.978;6.310;2023-03-14T12:16:58;5.13;;;1.90;;
54428;SDS011;40337;52.978;6.310;2023-03-14T12:19:42;10.63;;;3.25;;
54428;SDS011;40337;52.978;6.310;2023-03-14T12:22:13;7.22;;;2.42;;
54428;SDS011;40337;52.978;6.310;2023-03-14T12:25:33;7.70;;;2.22;;
54428;SDS011;40337;52.978;6.310;2023-03-14T12:35:43;9.40;;;3.08;;
54428;SDS011;40337;52.978;6.310;2023-03-14T12:38:12;9.25;;;2.40;;
54428;SDS011;40337;52.978;6.310;2023-03-14T12:43:29;8.05;;;2.38;;
54428;SDS011;40337;52.978;6.310;2023-03-14T12:46:19;9.63;;;2.60;;
54428;SDS011;40337;52.978;6.310;2023-03-14T12:56:40;6.30;;;1.80;;
54428;SDS011;40337;52.978;6.310;2023-03-14T13:02:01;6.45;;;2.25;;
54428;SDS011;40337;52.978;6.310;2023-03-14T13:04:32;5.82;;;2.00;;
54428;SDS011;40337;52.978;6.310;2023-03-14T13:15:39;6.18;;;1.90;;
54428;SDS011;40337;52.978;6.310;2023-03-14T13:20:54;8.15;;;1.65;;
54428;SDS011;40337;52.978;6.310;2023-03-14T13:23:24;6.35;;;2.70;;
54428;SDS011;40337;52.978;6.310;2023-03-14T13:25:54;10.63;;;2.53;;
54428;SDS011;40337;52.978;6.310;2023-03-14T13:28:21;7.63;;;2.55;;
54428;SDS011;40337;52.978;6.310;2023-03-14T13:30:48;7.45;;;2.08;;
54428;SDS011;40337;52.978;6.310;2023-03-14T13:33:19;8.23;;;2.55;;
54428;SDS011;40337;52.978;6.310;2023-03-14T13:35:48;9.00;;;2.20;;
54428;SDS011;40337;52.978;6.310;2023-03-14T13:38:20;8.10;;;2.10;;
54428;SDS011;40337;52.978;6.310;2023-03-14T13:40:48;7.82;;;1.83;;
54428;SDS011;40337;52.978;6.310;2023-03-14T13:45:47;9.35;;;2.50;;
54428;SDS011;40337;52.978;6.310;2023-03-14T13:48:13;9.55;;;1.90;;
54428;SDS011;40337;52.978;6.310;2023-03-14T13:50:44;9.07;;;1.92;;
54428;SDS011;40337;52.978;6.310;2023-03-14T13:53:20;6.55;;;2.20;;
54428;SDS011;40337;52.978;6.310;2023-03-14T13:55:46;5.57;;;2.13;;
54428;SDS011;40337;52.978;6.310;2023-03-14T14:00:56;6.78;;;2.13;;
54428;SDS011;40337;52.978;6.310;2023-03-14T14:03:24;6.85;;;2.15;;
54428;SDS011;40337;52.978;6.310;2023-03-14T14:05:50;5.32;;;1.60;;
54428;SDS011;40337;52.978;6.310;2023-03-14T14:08:16;6.22;;;1.88;;
54428;SDS011;40337;52.978;6.310;2023-03-14T14:10:41;5.40;;;1.75;;
54428;SDS011;40337;52.978;6.310;2023-03-14T14:13:08;7.25;;;1.83;;
54428;SDS011;40337;52.978;6.310;2023-03-14T14:15:43;8.75;;;2.10;;
54428;SDS011;40337;52.978;6.310;2023-03-14T14:18:12;8.65;;;1.80;;
54428;SDS011;40337;52.978;6.310;2023-03-14T14:20:42;7.25;;;1.55;;
54428;SDS011;40337;52.978;6.310;2023-03-14T14:23:10;9.25;;;2.33;;
54428;SDS011;40337;52.978;6.310;2023-03-14T14:25:43;8.85;;;2.20;;
54428;SDS011;40337;52.978;6.310;2023-03-14T14:28:28;7.40;;;2.00;;
54428;SDS011;40337;52.978;6.310;2023-03-14T14:31:38;8.38;;;2.00;;
54428;SDS011;40337;52.978;6.310;2023-03-14T14:33:54;8.65;;;2.20;;
54428;SDS011;40337;52.978;6.310;2023-03-14T14:41:42;8.00;;;1.83;;
54428;SDS011;40337;52.978;6.310;2023-03-14T14:44:11;9.93;;;1.77;;
54428;SDS011;40337;52.978;6.310;2023-03-14T14:46:38;5.95;;;1.52;;
54428;SDS011;40337;52.978;6.310;2023-03-14T14:49:12;5.13;;;1.70;;
54428;SDS011;40337;52.978;6.310;2023-03-14T14:51:48;5.93;;;1.70;;
54428;SDS011;40337;52.978;6.310;2023-03-14T14:54:19;7.43;;;1.75;;
54428;SDS011;40337;52.978;6.310;2023-03-14T14:57:01;6.32;;;1.80;;
54428;SDS011;40337;52.978;6.310;2023-03-14T14:59:28;6.53;;;1.40;;
54428;SDS011;40337;52.978;6.310;2023-03-14T15:01:58;7.70;;;2.00;;
54428;SDS011;40337;52.978;6.310;2023-03-14T15:04:25;6.53;;;1.85;;
54428;SDS011;40337;52.978;6.310;2023-03-14T15:06:51;5.88;;;1.40;;
54428;SDS011;40337;52.978;6.310;2023-03-14T15:09:18;6.55;;;1.63;;
54428;SDS011;40337;52.978;6.310;2023-03-14T15:11:45;6.57;;;1.55;;
54428;SDS011;40337;52.978;6.310;2023-03-14T15:14:11;7.30;;;1.42;;
54428;SDS011;40337;52.978;6.310;2023-03-14T15:16:37;6.05;;;1.80;;
54428;SDS011;40337;52.978;6.310;2023-03-14T15:19:09;8.00;;;1.95;;
54428;SDS011;40337;52.978;6.310;2023-03-14T15:21:43;8.35;;;1.48;;
54428;SDS011;40337;52.978;6.310;2023-03-14T15:24:09;9.75;;;2.00;;
54428;SDS011;40337;52.978;6.310;2023-03-14T15:26:35;6.38;;;1.92;;
54428;SDS011;40337;52.978;6.310;2023-03-14T15:29:01;6.80;;;1.80;;
54428;SDS011;40337;52.978;6.310;2023-03-14T15:31:26;9.50;;;2.15;;
54428;SDS011;40337;52.978;6.310;2023-03-14T15:33:52;8.85;;;1.98;;
54428;SDS011;40337;52.978;6.310;2023-03-14T15:38:54;8.85;;;1.98;;
54428;SDS011;40337;52.978;6.310;2023-03-14T15:41:20;8.27;;;1.85;;
54428;SDS011;40337;52.978;6.310;2023-03-14T15:43:47;10.98;;;2.13;;
54428;SDS011;40337;52.978;6.310;2023-03-14T15:46:13;7.65;;;2.20;;
54428;SDS011;40337;52.978;6.310;2023-03-14T15:48:40;8.57;;;2.25;;
54428;SDS011;40337;52.978;6.310;2023-03-14T15:51:06;7.30;;;2.10;;
54428;SDS011;40337;52.978;6.310;2023-03-14T15:53:31;8.88;;;2.33;;
54428;SDS011;40337;52.978;6.310;2023-03-14T15:55:57;8.93;;;2.00;;
54428;SDS011;40337;52.978;6.310;2023-03-14T15:58:23;8.52;;;1.80;;
54428;SDS011;40337;52.978;6.310;2023-03-14T16:00:49;11.95;;;2.20;;
54428;SDS011;40337;52.978;6.310;2023-03-14T16:03:15;6.80;;;2.05;;
54428;SDS011;40337;52.978;6.310;2023-03-14T16:05:41;7.93;;;2.17;;